Green Maru No.8 — JD2165 — position and weather

sailwx.info

Track history (hours):
 
Tides and Currents Weather Stations Pressure Air Temp Water Temp Dewpoint Dewpoint Depression Visibility Wind Speed Wind Dir Waves Ship Positions

Green Maru No.8

Last reported at 2018-Apr-27 01:59 UTC. Time now 2018-Apr-27 02:27 UTC.
Position N 34°43' E 134°39'.

Length 71 m; draft 3.7 m.

Type: Tanker. MMSI: 431501838.

Date/timePositionNaut miles runAvg speedWind from/ knotsBaromVisibWave heightAir tempDewpointWater temp
2018-Apr-27 01:59N 34°43' E 134°39'0 0.0
2018-Apr-27 01:29N 34°43' E 134°39'10211.0
2018-Apr-26 16:10N 34°01' E 132°46'212.0
2018-Apr-26 16:01N 33°59' E 132°45'611.3
2018-Apr-26 15:30N 33°55' E 132°40'2111.9
2018-Apr-26 13:44N 33°44' E 132°19'312.3
2018-Apr-26 13:30N 33°43' E 132°15'1812.5
2018-Apr-26 12:02N 33°43' E 131°53'113.3
2018-Apr-26 11:58N 33°43' E 131°52'713.3
2018-Apr-26 11:27N 33°45' E 131°44'613.4
2018-Apr-26 11:00N 33°46' E 131°37'713.2
2018-Apr-26 10:30N 33°47' E 131°29'612.8
2018-Apr-26 10:01N 33°49' E 131°22'612.6
2018-Apr-26 09:30N 33°51' E 131°15'612.2
2018-Apr-26 09:00N 33°53' E 131°08'612.4
2018-Apr-26 08:31N 33°57' E 131°02'4 8.4
2018-Apr-26 08:01N 33°57' E 130°57'4 8.1
2018-Apr-26 07:31N 33°55' E 130°53'611.2
2018-Apr-26 07:00N 33°58' E 130°48'612.6
2018-Apr-26 06:30N 33°57' E 130°40'612.6
2018-Apr-26 06:00N 33°56' E 130°32'611.5
2018-Apr-26 05:30N 33°52' E 130°27'612.5
2018-Apr-26 05:00N 33°48' E 130°22'712.6
2018-Apr-26 04:28N 33°43' E 130°17'510.2
2018-Apr-26 04:01N 33°39' E 130°19'4 7.5
2018-Apr-26 03:31N 33°36' E 130°23'0 0.0
2018-Apr-26 03:00N 33°36' E 130°23'0 0.0
2018-Apr-26 02:31N 33°36' E 130°23'0 0.0
2018-Apr-26 02:01N 33°36' E 130°23'0 0.0
2018-Apr-26 01:30N 33°36' E 130°23'0 0.0
2018-Apr-26 01:01N 33°36' E 130°23'0 0.0
2018-Apr-26 00:30N 33°36' E 130°23'0 0.0
2018-Apr-25 23:58N 33°36' E 130°23'0 0.0
2018-Apr-25 23:30N 33°36' E 130°23'1 2.2
2018-Apr-25 23:00N 33°37' E 130°23'510.9
2018-Apr-25 22:30N 33°40' E 130°17'611.4
2018-Apr-25 22:00N 33°46' E 130°17'712.9
2018-Apr-25 21:30N 33°51' E 130°21'613.0
2018-Apr-25 21:00N 33°57' E 130°24'713.0
2018-Apr-25 20:30N 33°59' E 130°32'612.9
2018-Apr-25 20:00N 34°02' E 130°39'612.4
2018-Apr-25 19:30N 34°03' E 130°47'612.0
2018-Apr-25 19:00N 33°60' E 130°53'510.9
2018-Apr-25 18:31N 33°54' E 130°55'510.3
2018-Apr-25 18:01N 33°58' E 130°59'510.9
2018-Apr-25 17:31N 33°56' E 131°05'612.8
2018-Apr-25 17:01N 33°53' E 131°11'712.9
2018-Apr-25 16:30N 33°51' E 131°19'713.1
2018-Apr-25 16:00N 33°50' E 131°27'613.0
2018-Apr-25 15:30N 33°48' E 131°34'612.7
2018-Apr-25 15:00N 33°47' E 131°42'3912.6
2018-Apr-25 11:55N 33°48' E 132°28'613.4
2018-Apr-25 11:27N 33°52' E 132°34'812.9
2018-Apr-25 10:50N 33°57' E 132°42'85 2.7
2018-Apr-24 03:53N 34°25' E 134°19'513.1
2018-Apr-24 03:29N 34°26' E 134°25'612.9
2018-Apr-24 03:00N 34°28' E 134°32'612.3
2018-Apr-24 02:29N 34°31' E 134°39'612.4
2018-Apr-24 02:00N 34°33' E 134°45'612.1
2018-Apr-24 01:30N 34°35' E 134°53'511.3
2018-Apr-24 01:00N 34°37' E 134°59'5 9.7
2018-Apr-24 00:31N 34°36' E 135°04'611.0
2018-Apr-24 00:00N 34°30' E 135°04'612.9
2018-Apr-23 23:30N 34°24' E 135°02'612.9
2018-Apr-23 23:00N 34°18' E 134°60'612.6
2018-Apr-23 22:30N 34°11' E 134°60'713.4
2018-Apr-23 22:00N 34°05' E 135°00'713.6
2018-Apr-23 21:30N 33°58' E 135°00'21210.9
2018-Apr-23 02:01N 34°45' E 139°11'211.7
2018-Apr-23 01:51N 34°46' E 139°13'  
2018-Apr-20 17:57N 34°50' E 139°21'613.7
2018-Apr-20 17:30N 34°47' E 139°15'814.0
2018-Apr-20 16:54N 34°42' E 139°06'713.4
2018-Apr-20 16:22N 34°37' E 138°60'812.9
2018-Apr-20 15:45N 34°34' E 138°51'1612.7
2018-Apr-20 14:27N 34°33' E 138°31'612.6
2018-Apr-20 14:00N 34°33' E 138°24'612.8
2018-Apr-20 13:30N 34°33' E 138°16'4512.4
2018-Apr-20 09:55N 34°32' E 137°22'612.2
2018-Apr-20 09:26N 34°32' E 137°15'1811.1
2018-Apr-20 07:48N 34°37' E 136°54'412.2
2018-Apr-20 07:30N 34°40' E 136°50'612.3
2018-Apr-20 07:00N 34°45' E 136°47'612.3
2018-Apr-20 06:30N 34°51' E 136°44'612.4
2018-Apr-20 06:00N 34°56' E 136°42'3 5.1
2018-Apr-20 05:30N 34°58' E 136°39'0 0.0
2018-Apr-20 05:00N 34°58' E 136°39'0 0.0
2018-Apr-20 04:30N 34°58' E 136°39'0 0.0
2018-Apr-20 04:00N 34°58' E 136°39'0 0.0
2018-Apr-20 03:30N 34°58' E 136°39'0 0.0
2018-Apr-20 03:00N 34°58' E 136°39'0 0.0
2018-Apr-20 02:30N 34°58' E 136°39'0 0.0
2018-Apr-20 02:00N 34°58' E 136°39'0 0.0
2018-Apr-20 01:30N 34°58' E 136°39'0 0.0
2018-Apr-20 01:00N 34°58' E 136°39'0 0.0
2018-Apr-20 00:30N 34°58' E 136°39'0 0.0
2018-Apr-20 00:00N 34°58' E 136°39'0 0.0
2018-Apr-19 23:30N 34°58' E 136°39'2 3.7
2018-Apr-19 23:00N 34°58' E 136°41'611.7
2018-Apr-19 22:30N 34°52' E 136°43'713.0
2018-Apr-19 22:00N 34°47' E 136°47'813.0
2018-Apr-19 21:22N 34°40' E 136°52'10112.2
2018-Apr-19 13:05N 34°36' E 138°55'1112.9
2018-Apr-19 12:14N 34°42' E 139°05'2611.8
2018-Apr-19 10:01N 34°59' E 139°30'112.0
2018-Apr-19 09:58N 34°59' E 139°31'511.8
2018-Apr-19 09:31N 35°03' E 139°35'612.9
2018-Apr-19 09:00N 35°07' E 139°42'612.8
2018-Apr-19 08:30N 35°12' E 139°46'611.0
2018-Apr-19 08:00N 35°17' E 139°45'611.6
2018-Apr-19 07:31N 35°23' E 139°42'510.9
2018-Apr-19 07:00N 35°27' E 139°46'3 6.2
2018-Apr-19 06:31N 35°30' E 139°45'1 1.2
2018-Apr-19 06:00N 35°31' E 139°45'0 0.0
2018-Apr-19 05:30N 35°31' E 139°45'0 0.0
2018-Apr-19 05:00N 35°31' E 139°45'0 0.0
2018-Apr-19 04:30N 35°31' E 139°45'0 0.0
2018-Apr-19 04:00N 35°31' E 139°45'0 0.1
2018-Apr-19 03:30N 35°31' E 139°45'1 2.9
2018-Apr-19 03:00N 35°30' E 139°47'3 5.3
2018-Apr-19 02:31N 35°29' E 139°49'2 4.0
2018-Apr-19 02:00N 35°27' E 139°48'611.7
2018-Apr-19 01:30N 35°22' E 139°45'5 9.9
2018-Apr-19 01:01N 35°17' E 139°46'510.1
2018-Apr-19 00:31N 35°12' E 139°47'611.8
2018-Apr-19 00:00N 35°06' E 139°45'612.2
2018-Apr-18 23:30N 35°02' E 139°39'2813.0
2018-Apr-18 21:20N 34°45' E 139°12'612.1
2018-Apr-18 20:53N 34°42' E 139°06'711.2
2018-Apr-18 20:15N 34°37' E 138°60'311.2
2018-Apr-18 20:00N 34°36' E 138°57'10111.7
2018-Apr-18 11:23N 34°38' E 136°54'512.4
2018-Apr-18 11:00N 34°41' E 136°50'712.6
2018-Apr-18 10:28N 34°46' E 136°46'612.2
2018-Apr-18 10:00N 34°52' E 136°43'611.6
2018-Apr-18 09:30N 34°57' E 136°40'1 2.7
2018-Apr-18 09:00N 34°56' E 136°38'0 0.0
2018-Apr-18 08:30N 34°56' E 136°38'0 0.0
2018-Apr-18 08:00N 34°56' E 136°38'0 0.0
2018-Apr-18 07:31N 34°56' E 136°38'0 0.0
2018-Apr-18 07:00N 34°56' E 136°38'0 0.0
2018-Apr-18 06:30N 34°56' E 136°38'0 0.0
2018-Apr-18 06:00N 34°56' E 136°38'0 0.0
2018-Apr-18 05:30N 34°56' E 136°38'0 0.0
2018-Apr-18 05:00N 34°56' E 136°38'0 0.0
2018-Apr-18 04:28N 34°56' E 136°38'1 2.8
2018-Apr-18 04:00N 34°57' E 136°40'1 2.8
2018-Apr-18 03:31N 34°57' E 136°42'0 0.0
2018-Apr-18 03:01N 34°57' E 136°42'0 0.0
2018-Apr-18 02:31N 34°57' E 136°42'0 0.1
2018-Apr-18 01:56N 34°57' E 136°42'0 0.0
2018-Apr-18 01:29N 34°57' E 136°42'0 0.0
2018-Apr-18 00:50N 34°57' E 136°42'0 0.0
2018-Apr-18 00:26N 34°57' E 136°42'0 0.0
2018-Apr-17 23:56N 34°57' E 136°42'0 0.0
2018-Apr-17 23:26N 34°57' E 136°42'0 0.0
2018-Apr-17 22:59N 34°57' E 136°42'0 0.1
2018-Apr-17 22:26N 34°57' E 136°42'0 0.0
2018-Apr-17 21:59N 34°57' E 136°42'0 0.1
2018-Apr-17 21:29N 34°57' E 136°42'0 0.1
2018-Apr-17 20:59N 34°57' E 136°42'0 0.0
2018-Apr-17 20:26N 34°57' E 136°42'0 0.0
2018-Apr-17 19:59N 34°57' E 136°42'0 0.0
2018-Apr-17 19:29N 34°57' E 136°42'0 0.0
2018-Apr-17 18:59N 34°57' E 136°42'0 0.1
2018-Apr-17 18:29N 34°57' E 136°42'0 0.0
2018-Apr-17 17:59N 34°57' E 136°42'0 0.0
2018-Apr-17 17:29N 34°57' E 136°42'0 0.0
2018-Apr-17 16:56N 34°57' E 136°42'0 0.0
2018-Apr-17 16:26N 34°57' E 136°42'0 0.0
2018-Apr-17 15:59N 34°57' E 136°42'0 0.0
2018-Apr-17 15:26N 34°57' E 136°42'0 0.0
2018-Apr-17 14:59N 34°57' E 136°42'0 0.0
2018-Apr-17 14:26N 34°57' E 136°42'0 0.1
2018-Apr-17 13:59N 34°57' E 136°42'0 0.1
2018-Apr-17 13:29N 34°57' E 136°42'0 0.1
2018-Apr-17 12:59N 34°57' E 136°42'0 0.0
2018-Apr-17 12:29N 34°57' E 136°42'0 0.0
2018-Apr-17 11:59N 34°57' E 136°42'0 0.0
2018-Apr-17 11:26N 34°57' E 136°42'0 0.0
2018-Apr-17 10:56N 34°57' E 136°42'0 0.1
2018-Apr-17 10:29N 34°57' E 136°42'0 0.1
2018-Apr-17 09:59N 34°57' E 136°42'0 0.0
2018-Apr-17 09:29N 34°57' E 136°42'0 0.0
2018-Apr-17 08:59N 34°57' E 136°42'0 0.0
2018-Apr-17 08:29N 34°57' E 136°42'0 0.0
2018-Apr-17 07:56N 34°57' E 136°42'0 0.0
2018-Apr-17 07:29N 34°57' E 136°42'0 0.0
2018-Apr-17 06:59N 34°57' E 136°42'0 0.0
2018-Apr-17 06:26N 34°57' E 136°42'0 0.0
2018-Apr-17 05:59N 34°57' E 136°42'0 0.1
2018-Apr-17 05:26N 34°57' E 136°42'0 0.0
2018-Apr-17 04:59N 34°57' E 136°42'0 0.0
2018-Apr-17 04:29N 34°57' E 136°42'0 0.0
2018-Apr-17 03:59N 34°57' E 136°42'0 0.0
2018-Apr-17 03:26N 34°57' E 136°42'0 0.0
2018-Apr-17 02:59N 34°57' E 136°42'0 0.0
2018-Apr-17 02:29N 34°57' E 136°42'  
Track history (hours):
 
Tides and Currents Weather Stations Pressure Air Temp Water Temp Dewpoint Dewpoint Depression Visibility Wind Speed Wind Dir Waves Ship Positions

Green Maru No.8

Last reported at 2018-Apr-27 01:59 UTC. Time now 2018-Apr-27 02:27 UTC.
Position N 34°43' E 134°39'.

Length 71 m; draft 3.7 m.

Type: Tanker. MMSI: 431501838.

Date/timePositionNaut miles runAvg speedWind from/ knotsBaromVisibWave heightAir tempDewpointWater temp
2018-Apr-27 01:59N 34°43' E 134°39'0 0.0
2018-Apr-27 01:29N 34°43' E 134°39'10211.0
2018-Apr-26 16:10N 34°01' E 132°46'212.0
2018-Apr-26 16:01N 33°59' E 132°45'611.3
2018-Apr-26 15:30N 33°55' E 132°40'2111.9
2018-Apr-26 13:44N 33°44' E 132°19'312.3
2018-Apr-26 13:30N 33°43' E 132°15'1812.5
2018-Apr-26 12:02N 33°43' E 131°53'113.3
2018-Apr-26 11:58N 33°43' E 131°52'713.3
2018-Apr-26 11:27N 33°45' E 131°44'613.4
2018-Apr-26 11:00N 33°46' E 131°37'713.2
2018-Apr-26 10:30N 33°47' E 131°29'612.8
2018-Apr-26 10:01N 33°49' E 131°22'612.6
2018-Apr-26 09:30N 33°51' E 131°15'612.2
2018-Apr-26 09:00N 33°53' E 131°08'612.4
2018-Apr-26 08:31N 33°57' E 131°02'4 8.4
2018-Apr-26 08:01N 33°57' E 130°57'4 8.1
2018-Apr-26 07:31N 33°55' E 130°53'611.2
2018-Apr-26 07:00N 33°58' E 130°48'612.6
2018-Apr-26 06:30N 33°57' E 130°40'612.6
2018-Apr-26 06:00N 33°56' E 130°32'611.5
2018-Apr-26 05:30N 33°52' E 130°27'612.5
2018-Apr-26 05:00N 33°48' E 130°22'712.6
2018-Apr-26 04:28N 33°43' E 130°17'510.2
2018-Apr-26 04:01N 33°39' E 130°19'4 7.5
2018-Apr-26 03:31N 33°36' E 130°23'0 0.0
2018-Apr-26 03:00N 33°36' E 130°23'0 0.0
2018-Apr-26 02:31N 33°36' E 130°23'0 0.0
2018-Apr-26 02:01N 33°36' E 130°23'0 0.0
2018-Apr-26 01:30N 33°36' E 130°23'0 0.0
2018-Apr-26 01:01N 33°36' E 130°23'0 0.0
2018-Apr-26 00:30N 33°36' E 130°23'0 0.0
2018-Apr-25 23:58N 33°36' E 130°23'0 0.0
2018-Apr-25 23:30N 33°36' E 130°23'1 2.2
2018-Apr-25 23:00N 33°37' E 130°23'510.9
2018-Apr-25 22:30N 33°40' E 130°17'611.4
2018-Apr-25 22:00N 33°46' E 130°17'712.9
2018-Apr-25 21:30N 33°51' E 130°21'613.0
2018-Apr-25 21:00N 33°57' E 130°24'713.0
2018-Apr-25 20:30N 33°59' E 130°32'612.9
2018-Apr-25 20:00N 34°02' E 130°39'612.4
2018-Apr-25 19:30N 34°03' E 130°47'612.0
2018-Apr-25 19:00N 33°60' E 130°53'510.9
2018-Apr-25 18:31N 33°54' E 130°55'510.3
2018-Apr-25 18:01N 33°58' E 130°59'510.9
2018-Apr-25 17:31N 33°56' E 131°05'612.8
2018-Apr-25 17:01N 33°53' E 131°11'712.9
2018-Apr-25 16:30N 33°51' E 131°19'713.1
2018-Apr-25 16:00N 33°50' E 131°27'613.0
2018-Apr-25 15:30N 33°48' E 131°34'612.7
2018-Apr-25 15:00N 33°47' E 131°42'3912.6
2018-Apr-25 11:55N 33°48' E 132°28'613.4
2018-Apr-25 11:27N 33°52' E 132°34'812.9
2018-Apr-25 10:50N 33°57' E 132°42'85 2.7
2018-Apr-24 03:53N 34°25' E 134°19'513.1
2018-Apr-24 03:29N 34°26' E 134°25'612.9
2018-Apr-24 03:00N 34°28' E 134°32'612.3
2018-Apr-24 02:29N 34°31' E 134°39'612.4
2018-Apr-24 02:00N 34°33' E 134°45'612.1
2018-Apr-24 01:30N 34°35' E 134°53'511.3
2018-Apr-24 01:00N 34°37' E 134°59'5 9.7
2018-Apr-24 00:31N 34°36' E 135°04'611.0
2018-Apr-24 00:00N 34°30' E 135°04'612.9
2018-Apr-23 23:30N 34°24' E 135°02'612.9
2018-Apr-23 23:00N 34°18' E 134°60'612.6
2018-Apr-23 22:30N 34°11' E 134°60'713.4
2018-Apr-23 22:00N 34°05' E 135°00'713.6
2018-Apr-23 21:30N 33°58' E 135°00'21210.9
2018-Apr-23 02:01N 34°45' E 139°11'211.7
2018-Apr-23 01:51N 34°46' E 139°13'  
2018-Apr-20 17:57N 34°50' E 139°21'613.7
2018-Apr-20 17:30N 34°47' E 139°15'814.0
2018-Apr-20 16:54N 34°42' E 139°06'713.4
2018-Apr-20 16:22N 34°37' E 138°60'812.9
2018-Apr-20 15:45N 34°34' E 138°51'1612.7
2018-Apr-20 14:27N 34°33' E 138°31'612.6
2018-Apr-20 14:00N 34°33' E 138°24'612.8
2018-Apr-20 13:30N 34°33' E 138°16'4512.4
2018-Apr-20 09:55N 34°32' E 137°22'612.2
2018-Apr-20 09:26N 34°32' E 137°15'1811.1
2018-Apr-20 07:48N 34°37' E 136°54'412.2
2018-Apr-20 07:30N 34°40' E 136°50'612.3
2018-Apr-20 07:00N 34°45' E 136°47'612.3
2018-Apr-20 06:30N 34°51' E 136°44'612.4
2018-Apr-20 06:00N 34°56' E 136°42'3 5.1
2018-Apr-20 05:30N 34°58' E 136°39'0 0.0
2018-Apr-20 05:00N 34°58' E 136°39'0 0.0
2018-Apr-20 04:30N 34°58' E 136°39'0 0.0
2018-Apr-20 04:00N 34°58' E 136°39'0 0.0
2018-Apr-20 03:30N 34°58' E 136°39'0 0.0
2018-Apr-20 03:00N 34°58' E 136°39'0 0.0
2018-Apr-20 02:30N 34°58' E 136°39'0 0.0
2018-Apr-20 02:00N 34°58' E 136°39'0 0.0
2018-Apr-20 01:30N 34°58' E 136°39'0 0.0
2018-Apr-20 01:00N 34°58' E 136°39'0 0.0
2018-Apr-20 00:30N 34°58' E 136°39'0 0.0
2018-Apr-20 00:00N 34°58' E 136°39'0 0.0
2018-Apr-19 23:30N 34°58' E 136°39'2 3.7
2018-Apr-19 23:00N 34°58' E 136°41'611.7
2018-Apr-19 22:30N 34°52' E 136°43'713.0
2018-Apr-19 22:00N 34°47' E 136°47'813.0
2018-Apr-19 21:22N 34°40' E 136°52'10112.2
2018-Apr-19 13:05N 34°36' E 138°55'1112.9
2018-Apr-19 12:14N 34°42' E 139°05'2611.8
2018-Apr-19 10:01N 34°59' E 139°30'112.0
2018-Apr-19 09:58N 34°59' E 139°31'511.8
2018-Apr-19 09:31N 35°03' E 139°35'612.9
2018-Apr-19 09:00N 35°07' E 139°42'612.8
2018-Apr-19 08:30N 35°12' E 139°46'611.0
2018-Apr-19 08:00N 35°17' E 139°45'611.6
2018-Apr-19 07:31N 35°23' E 139°42'510.9
2018-Apr-19 07:00N 35°27' E 139°46'3 6.2
2018-Apr-19 06:31N 35°30' E 139°45'1 1.2
2018-Apr-19 06:00N 35°31' E 139°45'0 0.0
2018-Apr-19 05:30N 35°31' E 139°45'0 0.0
2018-Apr-19 05:00N 35°31' E 139°45'0 0.0
2018-Apr-19 04:30N 35°31' E 139°45'0 0.0
2018-Apr-19 04:00N 35°31' E 139°45'0 0.1
2018-Apr-19 03:30N 35°31' E 139°45'1 2.9
2018-Apr-19 03:00N 35°30' E 139°47'3 5.3
2018-Apr-19 02:31N 35°29' E 139°49'2 4.0
2018-Apr-19 02:00N 35°27' E 139°48'611.7
2018-Apr-19 01:30N 35°22' E 139°45'5 9.9
2018-Apr-19 01:01N 35°17' E 139°46'510.1
2018-Apr-19 00:31N 35°12' E 139°47'611.8
2018-Apr-19 00:00N 35°06' E 139°45'612.2
2018-Apr-18 23:30N 35°02' E 139°39'2813.0
2018-Apr-18 21:20N 34°45' E 139°12'612.1
2018-Apr-18 20:53N 34°42' E 139°06'711.2
2018-Apr-18 20:15N 34°37' E 138°60'311.2
2018-Apr-18 20:00N 34°36' E 138°57'10111.7
2018-Apr-18 11:23N 34°38' E 136°54'512.4
2018-Apr-18 11:00N 34°41' E 136°50'712.6
2018-Apr-18 10:28N 34°46' E 136°46'612.2
2018-Apr-18 10:00N 34°52' E 136°43'611.6
2018-Apr-18 09:30N 34°57' E 136°40'1 2.7
2018-Apr-18 09:00N 34°56' E 136°38'0 0.0
2018-Apr-18 08:30N 34°56' E 136°38'0 0.0
2018-Apr-18 08:00N 34°56' E 136°38'0 0.0
2018-Apr-18 07:31N 34°56' E 136°38'0 0.0
2018-Apr-18 07:00N 34°56' E 136°38'0 0.0
2018-Apr-18 06:30N 34°56' E 136°38'0 0.0
2018-Apr-18 06:00N 34°56' E 136°38'0 0.0
2018-Apr-18 05:30N 34°56' E 136°38'0 0.0
2018-Apr-18 05:00N 34°56' E 136°38'0 0.0
2018-Apr-18 04:28N 34°56' E 136°38'1 2.8
2018-Apr-18 04:00N 34°57' E 136°40'1 2.8
2018-Apr-18 03:31N 34°57' E 136°42'0 0.0
2018-Apr-18 03:01N 34°57' E 136°42'0 0.0
2018-Apr-18 02:31N 34°57' E 136°42'0 0.1
2018-Apr-18 01:56N 34°57' E 136°42'0 0.0
2018-Apr-18 01:29N 34°57' E 136°42'0 0.0
2018-Apr-18 00:50N 34°57' E 136°42'0 0.0
2018-Apr-18 00:26N 34°57' E 136°42'0 0.0
2018-Apr-17 23:56N 34°57' E 136°42'0 0.0
2018-Apr-17 23:26N 34°57' E 136°42'0 0.0
2018-Apr-17 22:59N 34°57' E 136°42'0 0.1
2018-Apr-17 22:26N 34°57' E 136°42'0 0.0
2018-Apr-17 21:59N 34°57' E 136°42'0 0.1
2018-Apr-17 21:29N 34°57' E 136°42'0 0.1
2018-Apr-17 20:59N 34°57' E 136°42'0 0.0
2018-Apr-17 20:26N 34°57' E 136°42'0 0.0
2018-Apr-17 19:59N 34°57' E 136°42'0 0.0
2018-Apr-17 19:29N 34°57' E 136°42'0 0.0
2018-Apr-17 18:59N 34°57' E 136°42'0 0.1
2018-Apr-17 18:29N 34°57' E 136°42'0 0.0
2018-Apr-17 17:59N 34°57' E 136°42'0 0.0
2018-Apr-17 17:29N 34°57' E 136°42'0 0.0
2018-Apr-17 16:56N 34°57' E 136°42'0 0.0
2018-Apr-17 16:26N 34°57' E 136°42'0 0.0
2018-Apr-17 15:59N 34°57' E 136°42'0 0.0
2018-Apr-17 15:26N 34°57' E 136°42'0 0.0
2018-Apr-17 14:59N 34°57' E 136°42'0 0.0
2018-Apr-17 14:26N 34°57' E 136°42'0 0.1
2018-Apr-17 13:59N 34°57' E 136°42'0 0.1
2018-Apr-17 13:29N 34°57' E 136°42'0 0.1
2018-Apr-17 12:59N 34°57' E 136°42'0 0.0
2018-Apr-17 12:29N 34°57' E 136°42'0 0.0
2018-Apr-17 11:59N 34°57' E 136°42'0 0.0
2018-Apr-17 11:26N 34°57' E 136°42'0 0.0
2018-Apr-17 10:56N 34°57' E 136°42'0 0.1
2018-Apr-17 10:29N 34°57' E 136°42'0 0.1
2018-Apr-17 09:59N 34°57' E 136°42'0 0.0
2018-Apr-17 09:29N 34°57' E 136°42'0 0.0
2018-Apr-17 08:59N 34°57' E 136°42'0 0.0
2018-Apr-17 08:29N 34°57' E 136°42'0 0.0
2018-Apr-17 07:56N 34°57' E 136°42'0 0.0
2018-Apr-17 07:29N 34°57' E 136°42'0 0.0
2018-Apr-17 06:59N 34°57' E 136°42'0 0.0
2018-Apr-17 06:26N 34°57' E 136°42'0 0.0
2018-Apr-17 05:59N 34°57' E 136°42'0 0.1
2018-Apr-17 05:26N 34°57' E 136°42'0 0.0
2018-Apr-17 04:59N 34°57' E 136°42'0 0.0
2018-Apr-17 04:29N 34°57' E 136°42'0 0.0
2018-Apr-17 03:59N 34°57' E 136°42'0 0.0
2018-Apr-17 03:26N 34°57' E 136°42'0 0.0
2018-Apr-17 02:59N 34°57' E 136°42'0 0.0
2018-Apr-17 02:29N 34°57' E 136°42'  

Dump ship's entire track history